Time;durP1;ratioP1;P1;durP2;ratioP2;P2;SDS_P1;SDS_P2;PMS_P1;PMS_P2;Temp;Humidity;BMP_temperature;BMP_pressure;BME280_temperature;BME280_humidity;BME280_pressure;Samples;Min_cycle;Max_cycle;Signal;HPM_P1;HPM_P2
2022/06/20 00:02:25;;;;;;;14.85;7.95;;;;;;;16.76;92.23;100218.88;8358828;28;20040;-64
2022/06/20 00:06:26;;;;;;;17.67;9.25;;;;;;;16.72;93.92;100212.09;8356665;28;20055;-64
2022/06/20 00:10:29;;;;;;;17.08;9.10;;;;;;;16.58;96.15;100221.09;8354470;28;20041;-64
2022/06/20 00:14:29;;;;;;;17.23;9.60;;;;;;;16.47;96.89;100221.56;8382436;28;20037;-64
2022/06/20 00:18:31;;;;;;;13.05;10.32;;;;;;;16.44;97.76;100246.50;8392266;28;20470;-64
2022/06/20 00:22:31;;;;;;;16.70;10.38;;;;;;;16.45;97.61;100261.84;8368448;28;20183;-64
2022/06/20 00:26:34;;;;;;;15.38;10.65;;;;;;;16.41;98.57;100238.66;8359964;28;20037;-64
2022/06/20 00:30:36;;;;;;;13.15;9.88;;;;;;;16.26;98.10;100205.88;8360091;28;20041;-64
2022/06/20 00:34:37;;;;;;;18.05;11.10;;;;;;;16.22;99.85;100210.00;8348522;28;20493;-64
2022/06/20 00:38:37;;;;;;;16.95;9.95;;;;;;;16.24;99.24;100207.09;8359856;28;20177;-64
2022/06/20 00:42:38;;;;;;;15.45;10.63;;;;;;;16.14;100.00;100231.91;8362677;28;20037;-64
2022/06/20 00:46:44;;;;;;;20.80;12.00;;;;;;;16.25;100.00;100263.34;8359754;28;20033;-64
2022/06/20 00:50:50;;;;;;;16.15;10.77;;;;;;;16.28;100.00;100263.00;8369382;28;20055;-64
2022/06/20 00:54:56;;;;;;;16.52;10.43;;;;;;;16.28;100.00;100325.75;8383675;28;20135;-64
2022/06/20 00:59:05;;;;;;;20.83;10.98;;;;;;;16.30;100.00;100419.16;8359709;28;20037;-64
2022/06/20 01:03:24;;;;;;;19.80;11.63;;;;;;;16.18;100.00;100426.03;8360755;28;20041;-64
2022/06/20 01:07:32;;;;;;;18.98;11.27;;;;;;;16.02;100.00;100447.94;8369614;28;20291;-64
2022/06/20 01:11:52;;;;;;;19.60;13.20;;;;;;;15.95;100.00;100491.41;8360744;28;20044;-64
2022/06/20 01:16:17;;;;;;;23.52;12.90;;;;;;;15.80;100.00;100492.34;8358964;28;20032;-64
2022/06/20 01:20:22;;;;;;;27.73;14.15;;;;;;;15.76;100.00;100491.81;8364624;28;20127;-64
2022/06/20 01:24:27;;;;;;;;;;;;;;;15.77;100.00;100499.81;8358383;28;20410;-64
2022/06/20 01:28:31;;;;;;;37.47;18.45;;;;;;;15.83;100.00;100456.53;8360354;28;19912;-64
2022/06/20 01:32:32;;;;;;;;;;;;;;;15.73;100.00;100436.81;8391588;28;20028;-63
2022/06/20 01:37:37;;;;;;;39.65;19.58;;;;;;;15.81;100.00;100401.34;8388396;28;19912;-63
2022/06/20 01:42:28;;;;;;;38.67;19.38;;;;;;;15.77;100.00;100363.53;8371327;28;20076;-63
2022/06/20 01:46:19;;;;;;;42.30;20.77;;;;;;;15.65;100.00;100321.31;8382920;28;20068;-63
2022/06/20 01:49:41;;;;;;;40.70;19.60;;;;;;;15.45;100.00;100271.03;8384862;28;20039;-63
2022/06/20 01:53:41;;;;;;;44.58;19.92;;;;;;;15.37;100.00;100229.38;8381395;28;20127;-63
2022/06/20 01:57:46;;;;;;;39.20;20.10;;;;;;;15.30;100.00;100191.06;8360895;28;20029;-63
2022/06/20 02:01:47;;;;;;;;;;;;;;;15.24;100.00;100145.47;8363269;28;20025;-64
2022/06/20 02:05:54;;;;;;;45.90;21.95;;;;;;;15.16;100.00;100091.03;8355661;28;20373;-64
2022/06/20 02:09:54;;;;;;;40.97;22.33;;;;;;;15.13;100.00;100028.78;8355564;28;20040;-64
2022/06/20 02:14:04;;;;;;;38.67;21.25;;;;;;;15.07;100.00;99975.03;8374443;28;20024;-64
2022/06/20 02:18:07;;;;;;;42.55;21.25;;;;;;;15.00;100.00;99921.50;8389330;28;20056;-64
2022/06/20 02:22:09;;;;;;;40.13;20.90;;;;;;;14.93;100.00;99888.75;8377307;28;20063;-64
2022/06/20 02:26:11;;;;;;;35.35;19.58;;;;;;;14.91;100.00;99841.81;8390344;28;20042;-64
2022/06/20 02:30:12;;;;;;;35.25;20.08;;;;;;;14.88;100.00;99902.06;8383050;28;20520;-64
2022/06/20 02:34:13;;;;;;;37.00;20.90;;;;;;;15.06;100.00;100010.63;8387618;28;20116;-64
2022/06/20 02:38:13;;;;;;;36.28;19.70;;;;;;;15.04;100.00;100002.63;8389345;28;20489;-64
2022/06/20 02:42:19;;;;;;;32.63;19.90;;;;;;;14.99;100.00;99991.47;8373055;28;20049;-64
2022/06/20 02:46:24;;;;;;;31.65;18.33;;;;;;;15.05;100.00;99996.19;8358124;28;20056;-64
2022/06/20 02:50:31;;;;;;;28.75;18.85;;;;;;;15.09;100.00;100024.72;8370034;28;20315;-64
2022/06/20 02:54:35;;;;;;;29.13;17.23;;;;;;;15.01;100.00;100019.31;8386895;28;20036;-64
2022/06/20 02:58:41;;;;;;;28.20;16.48;;;;;;;14.93;100.00;100046.63;8387930;28;20168;-64
2022/06/20 03:02:48;;;;;;;34.95;19.05;;;;;;;14.86;100.00;100044.81;8357234;28;20519;-64
2022/06/20 03:06:54;;;;;;;39.72;18.92;;;;;;;14.91;100.00;100059.56;8384728;28;20029;-64
2022/06/20 03:10:55;;;;;;;33.35;19.73;;;;;;;14.82;100.00;100071.50;8355680;28;20052;-64
2022/06/20 03:14:59;;;;;;;32.33;19.75;;;;;;;14.80;100.00;100046.38;8380089;28;20040;-64
2022/06/20 03:19:01;;;;;;;41.70;22.57;;;;;;;14.71;100.00;100033.84;8387490;28;20107;-64
2022/06/20 03:23:09;;;;;;;36.92;22.77;;;;;;;14.74;100.00;100041.66;8376118;28;20275;-64
2022/06/20 03:27:14;;;;;;;37.00;24.42;;;;;;;14.94;100.00;100124.53;8386622;28;20032;-64
2022/06/20 03:31:15;;;;;;;39.28;23.10;;;;;;;15.00;100.00;100170.09;8387354;28;20492;-64
2022/06/20 03:35:16;;;;;;;36.28;21.55;;;;;;;15.04;100.00;100217.72;8386748;28;20417;-64
2022/06/20 03:39:19;;;;;;;37.85;21.65;;;;;;;15.11;100.00;100239.66;8355041;28;20088;-64
2022/06/20 03:43:23;;;;;;;34.35;22.30;;;;;;;15.03;100.00;100236.94;8358850;28;20044;-64
2022/06/20 03:47:30;;;;;;;31.23;21.55;;;;;;;15.14;100.00;100248.34;8354657;28;20090;-64
2022/06/20 03:51:40;;;;;;;44.97;25.58;;;;;;;15.12;100.00;100272.16;8365049;28;20056;-64
2022/06/20 03:55:58;;;;;;;41.05;26.95;;;;;;;15.07;100.00;100293.59;8392310;28;20523;-64
2022/06/20 04:00:04;;;;;;;46.65;29.75;;;;;;;15.22;100.00;100329.97;8371251;28;20071;-64
2022/06/20 04:04:17;;;;;;;50.63;27.73;;;;;;;15.21;100.00;100338.31;8355442;28;20110;-64
2022/06/20 04:13:12;;;;;;;42.63;26.88;;;;;;;15.14;100.00;100365.44;8383110;28;20066;-64
2022/06/20 04:18:30;;;;;;;44.40;28.65;;;;;;;15.09;100.00;100377.84;8385356;28;20044;-64
2022/06/20 04:21:51;;;;;;;44.28;28.90;;;;;;;15.10;100.00;100374.13;8379507;28;20110;-64
2022/06/20 04:26:17;;;;;;;41.47;25.30;;;;;;;14.99;100.00;100378.03;8369398;28;20558;-64
2022/06/20 04:30:33;;;;;;;44.95;24.17;;;;;;;14.95;100.00;100376.66;8356620;28;20460;-64
2022/06/20 04:34:41;;;;;;;41.15;21.88;;;;;;;14.85;100.00;100378.72;8359463;28;20154;-64
2022/06/20 04:38:51;;;;;;;39.33;20.90;;;;;;;14.81;100.00;100352.88;8359782;28;20524;-64
2022/06/20 04:42:56;;;;;;;40.08;22.13;;;;;;;14.69;100.00;100354.25;8363848;28;20041;-64
2022/06/20 04:47:26;;;;;;;39.90;21.90;;;;;;;14.70;100.00;100339.59;8353932;28;20049;-64
2022/06/20 04:51:32;;;;;;;34.83;21.20;;;;;;;14.74;100.00;100329.25;8367719;28;20048;-64
2022/06/20 04:55:34;;;;;;;32.90;20.85;;;;;;;14.64;100.00;100313.09;8385216;28;20381;-64
2022/06/20 04:59:34;;;;;;;33.47;18.60;;;;;;;14.58;100.00;100313.75;8375702;28;20037;-64
2022/06/20 05:03:41;;;;;;;25.88;15.73;;;;;;;14.51;100.00;100282.84;8373972;28;20078;-64
2022/06/20 05:07:42;;;;;;;21.63;13.00;;;;;;;14.50;100.00;100283.88;8360738;28;20175;-64
2022/06/20 05:11:49;;;;;;;28.63;13.98;;;;;;;14.59;100.00;100282.84;8369998;28;20037;-64
2022/06/20 05:15:50;;;;;;;24.17;10.85;;;;;;;14.50;100.00;100272.13;8360987;28;20037;-64
2022/06/20 05:19:55;;;;;;;26.13;10.93;;;;;;;14.53;100.00;100266.34;8362975;28;20048;-64
2022/06/20 05:24:02;;;;;;;15.85;9.00;;;;;;;14.52;100.00;100259.22;8383393;28;20040;-64
2022/06/20 05:28:08;;;;;;;16.50;10.05;;;;;;;14.61;100.00;100260.91;8360186;28;20072;-64
2022/06/20 05:32:16;;;;;;;20.70;9.95;;;;;;;14.58;100.00;100270.22;8363969;28;20048;-64
2022/06/20 05:36:43;;;;;;;18.67;9.90;;;;;;;14.69;100.00;100267.16;8359258;28;20056;-64
2022/06/20 05:40:48;;;;;;;20.73;10.70;;;;;;;14.66;100.00;100278.41;8354752;28;20047;-64
2022/06/20 05:44:49;;;;;;;24.75;11.48;;;;;;;14.70;100.00;100268.84;8367913;28;20040;-64
2022/06/20 05:48:53;;;;;;;21.35;10.95;;;;;;;14.78;100.00;100284.31;8361302;28;20051;-64
2022/06/20 05:52:55;;;;;;;23.80;10.30;;;;;;;14.76;100.00;100300.81;8358708;28;20029;-64
2022/06/20 05:57:01;;;;;;;18.92;9.45;;;;;;;14.72;100.00;100304.94;8357200;28;20228;-64
2022/06/20 06:01:07;;;;;;;20.17;9.57;;;;;;;14.74;100.00;100311.06;8358212;28;20067;-64
2022/06/20 06:05:18;;;;;;;22.08;8.82;;;;;;;14.72;100.00;100310.38;8355509;28;20389;-64
2022/06/20 06:09:25;;;;;;;17.63;8.45;;;;;;;14.72;100.00;100307.66;8351481;28;20103;-64
2022/06/20 06:13:42;;;;;;;18.10;8.23;;;;;;;14.85;100.00;100326.19;8361892;28;20036;-64
2022/06/20 06:17:53;;;;;;;11.57;7.40;;;;;;;14.78;100.00;100353.22;8353847;28;20047;-64
2022/06/20 06:21:58;;;;;;;18.80;7.70;;;;;;;14.94;100.00;100353.19;8362410;28;20040;-64
2022/06/20 06:25:58;;;;;;;14.90;6.53;;;;;;;15.01;100.00;100353.38;8355245;28;20093;-64
2022/06/20 06:30:07;;;;;;;20.73;7.57;;;;;;;15.08;100.00;100368.84;8355461;28;20044;-64
2022/06/20 06:34:39;;;;;;;15.65;6.10;;;;;;;15.02;100.00;100399.47;8389438;28;20489;-64
2022/06/20 06:38:46;;;;;;;11.20;4.65;;;;;;;14.90;100.00;100384.50;8365058;28;20064;-64
2022/06/20 06:42:47;;;;;;;15.25;5.57;;;;;;;14.75;100.00;100369.91;8359389;28;20068;-64
2022/06/20 06:46:52;;;;;;;12.60;5.40;;;;;;;14.75;100.00;100397.09;8352217;28;20053;-64
2022/06/20 06:50:56;;;;;;;;;;;;;;;14.65;100.00;100407.31;8360740;28;20037;-64
2022/06/20 06:55:03;;;;;;;17.88;5.10;;;;;;;14.62;100.00;100423.13;8354940;28;20019;-64
2022/06/20 06:59:14;;;;;;;19.95;5.82;;;;;;;14.52;100.00;100417.81;8352627;28;20041;-64
2022/06/20 07:03:21;;;;;;;23.55;5.35;;;;;;;14.42;100.00;100433.47;8354357;28;20459;-64
2022/06/20 07:07:27;;;;;;;22.80;5.50;;;;;;;14.27;100.00;100424.25;8355946;28;20044;-63
2022/06/20 07:11:31;;;;;;;17.75;5.93;;;;;;;14.31;100.00;100427.50;8351880;28;20387;-64
2022/06/20 07:15:33;;;;;;;17.83;7.22;;;;;;;14.44;100.00;100426.00;8344349;28;20048;-64
2022/06/20 07:19:38;;;;;;;21.15;6.43;;;;;;;14.43;100.00;100434.31;8363873;28;20060;-64
2022/06/20 07:23:39;;;;;;;;;;;;;;;14.47;100.00;100441.97;8360026;28;20075;-64
2022/06/20 07:27:47;;;;;;;11.93;6.03;;;;;;;14.69;100.00;100441.31;8350126;28;20240;-64
2022/06/20 07:31:54;;;;;;;16.65;6.75;;;;;;;14.59;100.00;100424.31;8349246;28;20080;-64
2022/06/20 07:35:58;;;;;;;18.27;7.47;;;;;;;14.73;100.00;100437.25;8357000;28;20664;-64
2022/06/20 07:40:31;;;;;;;17.30;7.47;;;;;;;14.60;100.00;100426.00;8350786;28;20098;-64
2022/06/20 07:44:42;;;;;;;22.40;7.68;;;;;;;14.67;100.00;100427.03;8347793;28;20041;-64
2022/06/20 07:48:45;;;;;;;24.67;7.22;;;;;;;14.76;100.00;100455.94;8350046;28;20529;-64
2022/06/20 07:52:53;;;;;;;18.67;7.03;;;;;;;14.76;100.00;100469.56;8352438;28;20117;-64
2022/06/20 08:01:20;;;;;;;22.20;7.88;;;;;;;14.65;100.00;100502.56;8290579;28;20469;-64
2022/06/20 08:05:27;;;;;;;26.60;7.40;;;;;;;14.74;100.00;100508.88;8264022;28;20046;-64
2022/06/20 08:09:39;;;;;;;26.15;7.15;;;;;;;14.70;100.00;100524.66;8265229;28;20072;-64
2022/06/20 08:13:51;;;;;;;20.52;7.63;;;;;;;14.85;100.00;100528.44;8257342;28;20066;-64
2022/06/20 08:17:53;;;;;;;20.80;7.63;;;;;;;15.01;100.00;100533.91;8273245;28;20062;-64
2022/06/20 08:22:01;;;;;;;16.00;6.60;;;;;;;14.98;100.00;100545.13;8275817;28;20046;-64
2022/06/20 08:26:07;;;;;;;22.73;7.30;;;;;;;15.07;100.00;100549.56;8276191;28;20522;-64
2022/06/20 08:30:13;;;;;;;21.17;6.82;;;;;;;15.22;100.00;100536.97;8274144;28;20790;-64
2022/06/20 08:34:25;;;;;;;29.02;7.82;;;;;;;15.64;100.00;100534.09;8275640;28;20074;-64
2022/06/20 08:38:50;;;;;;;14.85;6.18;;;;;;;16.08;100.00;100534.50;8276150;28;20073;-64
2022/06/20 08:43:30;;;;;;;16.40;6.40;;;;;;;16.62;100.00;100544.56;8275171;28;20053;-64
2022/06/20 08:48:08;;;;;;;17.83;5.63;;;;;;;17.12;100.00;100542.19;8276428;28;20038;-64
2022/06/20 08:52:48;;;;;;;15.60;4.55;;;;;;;17.39;100.00;100545.19;8274844;28;20038;-64
2022/06/20 08:56:58;;;;;;;15.55;4.65;;;;;;;17.39;100.00;100549.81;8272899;28;20158;-64
2022/06/20 09:01:18;;;;;;;12.93;5.40;;;;;;;16.96;98.28;100553.22;8276181;28;20046;-65
2022/06/20 09:05:59;;;;;;;18.13;7.10;;;;;;;17.06;95.68;100564.75;8271265;28;20050;-65
2022/06/20 09:10:25;;;;;;;18.42;6.80;;;;;;;16.91;97.74;100572.88;8263417;28;20045;-65
2022/06/20 09:15:07;;;;;;;17.25;6.30;;;;;;;17.42;100.00;100582.25;8252167;28;20119;-65
2022/06/20 09:23:57;;;;;;;16.42;6.05;;;;;;;17.41;89.99;100580.53;8376344;27;20399;-64
2022/06/20 09:28:26;;;;;;;18.58;6.88;;;;;;;18.17;92.93;100594.91;8352292;28;20171;-64
2022/06/20 09:37:06;;;;;;;18.95;7.97;;;;;;;17.91;90.30;100580.81;8300365;28;20364;-65
2022/06/20 09:41:20;;;;;;;20.08;9.82;;;;;;;17.68;88.87;100581.91;8278907;28;20042;-64
2022/06/20 09:45:44;;;;;;;16.48;10.85;;;;;;;17.67;92.10;100585.66;8266006;28;20128;-64
2022/06/20 09:50:02;;;;;;;;;;;;;;;17.70;90.10;100575.22;8276225;28;20053;-64
2022/06/20 09:54:21;;;;;;;24.58;10.82;;;;;;;17.88;92.36;100583.94;8278043;28;19917;-64
2022/06/20 09:58:34;;;;;;;24.05;11.13;;;;;;;17.78;88.05;100593.44;8285705;28;20045;-64
2022/06/20 10:07:02;;;;;;;24.60;11.23;;;;;;;17.77;88.00;100619.94;8278587;28;20399;-64
2022/06/20 10:11:42;;;;;;;19.73;10.30;;;;;;;17.91;89.97;100613.66;8246756;28;20173;-65
2022/06/20 10:15:54;;;;;;;19.35;9.98;;;;;;;17.97;89.21;100618.38;8246802;28;20082;-65
2022/06/20 10:20:33;;;;;;;20.27;8.85;;;;;;;18.00;87.72;100611.69;8279051;28;20053;-65
2022/06/20 10:25:04;;;;;;;19.02;8.48;;;;;;;18.26;87.00;100618.41;8279285;28;20466;-65
2022/06/20 10:29:33;;;;;;;15.07;8.38;;;;;;;18.38;86.59;100597.78;8277404;28;20046;-65
2022/06/20 10:34:13;;;;;;;17.05;7.63;;;;;;;18.92;83.73;100612.84;8276641;28;20404;-65
2022/06/20 10:38:32;;;;;;;12.88;6.32;;;;;;;19.45;82.20;100620.66;8283022;28;20046;-65
2022/06/20 10:42:45;;;;;;;13.02;6.28;;;;;;;19.10;84.62;100620.66;8276840;28;20049;-64
2022/06/20 10:47:11;;;;;;;14.95;5.68;;;;;;;18.81;81.94;100609.72;8276822;28;20042;-65
2022/06/20 10:51:41;;;;;;;19.40;6.22;;;;;;;19.44;82.15;100616.22;8266442;28;20525;-64
2022/06/20 10:55:50;;;;;;;6.60;3.90;;;;;;;20.59;77.04;100601.94;8272679;28;20042;-64
2022/06/20 11:00:12;;;;;;;10.60;3.80;;;;;;;20.23;75.80;100625.19;8274204;28;20087;-64
2022/06/20 11:04:32;;;;;;;11.02;3.30;;;;;;;19.91;78.34;100628.50;8275701;28;20414;-64
2022/06/20 11:09:00;;;;;;;11.48;3.25;;;;;;;20.14;76.65;100620.88;8272339;28;20477;-64
2022/06/20 11:22:34;;;;;;;11.82;3.50;;;;;;;21.31;75.24;100621.53;8399756;27;20918;-64
2022/06/20 11:26:51;;;;;;;9.65;3.53;;;;;;;20.93;75.25;100628.56;8350525;28;20045;-64
2022/06/20 11:31:16;;;;;;;6.35;2.42;;;;;;;23.16;72.16;100634.81;8354673;28;20132;-64
2022/06/20 11:35:30;;;;;;;11.27;2.55;;;;;;;26.56;59.49;100629.91;8361743;28;20603;-64
2022/06/20 11:49:12;;;;;;;8.68;1.90;;;;;;;21.32;67.33;100628.75;8334564;27;20687;-64
2022/06/20 11:57:49;;;;;;;10.82;2.05;;;;;;;20.76;67.38;100606.06;8397069;27;20364;-63
2022/06/20 12:01:58;;;;;;;7.10;1.75;;;;;;;21.09;67.40;100600.75;8368486;28;20049;-64
2022/06/20 12:06:17;;;;;;;5.95;1.40;;;;;;;24.03;59.91;100589.91;8345196;28;20041;-64
2022/06/20 12:10:44;;;;;;;5.60;1.00;;;;;;;26.88;55.13;100602.63;8345564;28;20029;-64
2022/06/20 12:15:18;;;;;;;3.92;0.90;;;;;;;23.80;57.24;100603.44;8344209;28;20409;-64
2022/06/20 12:23:42;;;;;;;9.43;2.00;;;;;;;22.18;63.44;100600.28;8306015;28;20888;-63
2022/06/20 12:27:46;;;;;;;8.20;1.40;;;;;;;21.40;64.01;100598.28;8295150;28;20123;-64
2022/06/20 12:31:55;;;;;;;8.02;1.52;;;;;;;21.86;64.61;100590.97;8285955;28;20071;-64
2022/06/20 12:36:01;;;;;;;4.20;1.25;;;;;;;22.04;63.71;100601.31;8286077;28;20133;-64
2022/06/20 12:40:27;;;;;;;5.20;1.45;;;;;;;21.29;61.54;100594.22;8276913;28;20124;-64
2022/06/20 12:45:01;;;;;;;6.07;1.48;;;;;;;21.37;63.29;100590.44;8279338;28;20502;-64
2022/06/20 12:49:07;;;;;;;;;;;;;;;21.30;62.70;100587.69;8284536;28;20034;-64
2022/06/20 12:53:28;;;;;;;6.75;1.42;;;;;;;21.13;63.32;100585.50;8294111;28;19925;-64
2022/06/20 13:02:19;;;;;;;3.50;1.50;;;;;;;22.38;63.37;100584.56;8390734;27;20407;-63
2022/06/20 13:06:50;;;;;;;5.93;1.50;;;;;;;22.56;58.74;100574.56;8368437;28;20040;-64
2022/06/20 13:11:21;;;;;;;3.78;1.40;;;;;;;22.46;58.21;100567.78;8379714;28;20076;-63
2022/06/20 13:15:36;;;;;;;8.60;2.08;;;;;;;22.50;62.70;100564.41;8380456;28;20045;-63
2022/06/20 13:19:54;;;;;;;12.57;3.40;;;;;;;22.41;59.12;100570.31;8373618;28;20044;-64
2022/06/20 13:24:11;;;;;;;8.02;1.83;;;;;;;21.65;59.42;100571.84;8355496;28;20055;-64
2022/06/20 13:28:19;;;;;;;5.70;1.92;;;;;;;21.41;59.49;100578.00;8350055;28;20109;-64
2022/06/20 13:32:32;;;;;;;7.93;1.35;;;;;;;21.62;59.66;100580.53;8349038;28;20492;-63
2022/06/20 13:37:03;;;;;;;7.28;2.22;;;;;;;21.54;58.33;100583.50;8351974;28;20065;-63
2022/06/20 13:41:24;;;;;;;5.28;1.40;;;;;;;21.67;59.57;100585.41;8341835;28;20070;-63
2022/06/20 13:45:53;;;;;;;7.05;1.85;;;;;;;21.91;60.42;100579.31;8345038;28;20049;-63
2022/06/20 13:50:22;;;;;;;5.47;1.77;;;;;;;21.93;57.45;100575.31;8349216;28;20445;-63
2022/06/20 13:54:35;;;;;;;4.20;1.55;;;;;;;22.07;59.21;100587.13;8354494;28;20084;-63
2022/06/20 13:58:46;;;;;;;6.75;1.50;;;;;;;22.65;57.61;100566.91;8355283;28;20064;-63
2022/06/20 14:03:06;;;;;;;5.80;1.42;;;;;;;21.94;57.67;100578.88;8397275;28;20096;-63
2022/06/20 14:07:07;;;;;;;4.80;1.70;;;;;;;21.45;58.07;100582.00;8342066;28;20522;-63
2022/06/20 14:11:32;;;;;;;5.22;1.75;;;;;;;21.51;57.79;100578.41;8345752;28;20406;-64
2022/06/20 14:15:36;;;;;;;6.40;1.63;;;;;;;21.88;58.82;100579.72;8326015;28;20033;-63
2022/06/20 14:19:43;;;;;;;5.70;2.00;;;;;;;21.93;58.14;100572.56;8339496;28;20049;-63
2022/06/20 14:23:49;;;;;;;7.10;1.88;;;;;;;21.89;57.44;100575.94;8331112;28;20037;-63
2022/06/20 14:27:52;;;;;;;7.28;1.70;;;;;;;21.82;57.58;100569.56;8317901;28;20072;-63
2022/06/20 14:36:26;;;;;;;3.53;1.63;;;;;;;21.55;58.02;100578.81;8411394;27;20909;-63
2022/06/20 14:40:37;;;;;;;4.50;1.90;;;;;;;21.57;57.95;100577.59;8403079;28;20822;-63
2022/06/20 14:49:15;;;;;;;6.00;1.92;;;;;;;21.65;57.69;100574.59;8400944;27;20356;-63
2022/06/20 14:53:28;;;;;;;7.50;2.05;;;;;;;21.55;58.10;100568.69;8373843;28;20048;-63
2022/06/20 14:57:37;;;;;;;4.50;1.90;;;;;;;21.57;58.35;100580.34;8378981;28;20032;-63
2022/06/20 15:01:47;;;;;;;3.53;1.75;;;;;;;21.40;58.34;100579.03;8370969;28;20033;-63
2022/06/20 15:06:00;;;;;;;6.03;1.42;;;;;;;21.24;59.94;100568.41;8364135;28;20037;-63
2022/06/20 15:10:29;;;;;;;6.97;2.13;;;;;;;21.39;58.18;100574.59;8364075;28;20099;-63
2022/06/20 15:14:41;;;;;;;7.32;2.33;;;;;;;21.73;55.80;100574.41;8363168;28;20520;-63
2022/06/20 15:18:46;;;;;;;7.72;2.40;;;;;;;21.97;57.95;100584.81;8356025;28;20040;-63
2022/06/20 15:22:54;;;;;;;6.90;2.33;;;;;;;21.95;60.06;100572.31;8376810;28;20661;-63
2022/06/20 15:27:01;;;;;;;6.63;2.20;;;;;;;21.71;56.37;100573.75;8368652;28;20126;-63
2022/06/20 15:31:12;;;;;;;5.55;2.33;;;;;;;21.57;55.90;100572.06;8375947;28;20044;-63
2022/06/20 15:39:58;;;;;;;5.32;2.25;;;;;;;22.10;57.11;100576.53;8272503;28;20922;-63
2022/06/20 15:44:15;;;;;;;4.00;2.30;;;;;;;22.23;55.47;100567.44;8241547;28;20049;-63
2022/06/20 15:48:23;;;;;;;7.80;2.22;;;;;;;22.09;56.41;100572.13;8240643;28;20130;-63
2022/06/20 15:57:07;;;;;;;8.25;2.53;;;;;;;21.80;57.31;100575.28;8384528;27;20924;-63
2022/06/20 16:01:24;;;;;;;6.32;2.92;;;;;;;21.55;55.82;100574.19;8385389;28;20033;-63
2022/06/20 16:05:36;;;;;;;9.68;2.40;;;;;;;21.83;56.03;100574.84;8382581;28;20047;-63
2022/06/20 16:09:58;;;;;;;3.47;1.88;;;;;;;22.10;55.40;100568.28;8400740;28;20143;-63
2022/06/20 16:14:00;;;;;;;4.07;2.05;;;;;;;22.09;54.97;100566.59;8377802;28;20086;-63
2022/06/20 16:18:03;;;;;;;7.53;2.55;;;;;;;22.05;55.74;100564.50;8384810;28;20143;-63
2022/06/20 16:22:07;;;;;;;8.15;2.08;;;;;;;21.98;58.26;100572.75;8386844;28;20098;-63
2022/06/20 16:30:38;;;;;;;5.70;1.98;;;;;;;21.97;59.17;100556.44;8312331;27;20923;-63
2022/06/20 16:34:56;;;;;;;5.65;2.22;;;;;;;22.05;58.08;100548.78;8321184;28;20310;-63
2022/06/20 16:39:08;;;;;;;10.07;2.55;;;;;;;21.93;58.01;100555.19;8321287;28;20068;-63
2022/06/20 16:48:17;;;;;;;9.40;2.50;;;;;;;21.87;58.74;100567.03;8337421;28;20379;-62
2022/06/20 16:52:44;;;;;;;6.82;2.38;;;;;;;21.73;55.85;100555.16;8345572;28;20521;-62
2022/06/20 16:57:06;;;;;;;5.22;2.17;;;;;;;21.76;57.80;100560.25;8359138;28;20514;-62
2022/06/20 17:01:19;;;;;;;5.45;2.47;;;;;;;21.66;56.90;100559.81;8361047;28;20460;-63
2022/06/20 17:05:43;;;;;;;8.93;2.05;;;;;;;21.53;58.48;100557.03;8362568;28;20032;-63
2022/06/20 17:14:59;;;;;;;14.57;2.35;;;;;;;21.56;56.63;100558.53;8356219;27;20427;-63
2022/06/20 17:19:12;;;;;;;6.03;2.15;;;;;;;21.56;57.06;100564.03;8331216;28;20440;-63
2022/06/20 17:27:59;;;;;;;6.90;2.15;;;;;;;21.51;56.96;100561.06;8351013;27;20445;-62
2022/06/20 17:32:09;;;;;;;7.60;2.17;;;;;;;21.45;56.70;100572.91;8333313;28;20033;-62
2022/06/20 17:36:38;;;;;;;6.60;2.05;;;;;;;21.37;56.93;100568.44;8310870;28;20107;-63
2022/06/20 17:40:48;;;;;;;9.73;2.28;;;;;;;21.30;56.47;100559.34;8340042;28;20044;-63
2022/06/20 17:45:16;;;;;;;8.45;2.25;;;;;;;21.19;57.81;100558.03;8340791;28;20071;-63
2022/06/20 17:49:45;;;;;;;7.82;1.65;;;;;;;21.17;57.17;100564.81;8329206;28;20387;-63
2022/06/20 17:54:19;;;;;;;7.10;1.63;;;;;;;21.08;57.83;100563.31;8311033;28;20113;-63
2022/06/20 17:58:50;;;;;;;4.68;1.42;;;;;;;21.05;57.59;100560.97;8343078;28;20810;-64
2022/06/20 18:02:59;;;;;;;7.63;1.85;;;;;;;20.99;57.56;100572.78;8338394;28;20050;-63
2022/06/20 18:07:04;;;;;;;6.88;2.30;;;;;;;20.90;57.41;100563.00;8321365;28;20045;-62
2022/06/20 18:11:29;;;;;;;8.60;1.95;;;;;;;20.87;58.54;100574.41;8345559;28;20380;-63
2022/06/20 18:15:37;;;;;;;6.50;2.35;;;;;;;20.77;58.22;100573.94;8324305;28;20602;-63
2022/06/20 18:19:47;;;;;;;6.20;2.05;;;;;;;20.67;58.23;100584.44;8323458;28;20044;-64
2022/06/20 18:23:54;;;;;;;8.30;1.73;;;;;;;20.59;59.20;100587.38;8321715;28;20591;-63
2022/06/20 18:28:01;;;;;;;6.43;2.15;;;;;;;20.56;60.19;100587.78;8343090;28;20064;-62
2022/06/20 18:32:09;;;;;;;9.32;2.17;;;;;;;20.43;60.03;100582.22;8340864;28;20365;-62
2022/06/20 18:36:09;;;;;;;8.75;1.95;;;;;;;20.34;60.92;100589.75;8308075;28;20046;-62
2022/06/20 18:40:16;;;;;;;6.60;2.10;;;;;;;20.26;59.51;100580.84;8311353;28;20120;-62
2022/06/20 18:44:17;;;;;;;5.72;1.77;;;;;;;20.19;60.75;100586.28;8289416;28;20144;-62
2022/06/20 18:48:38;;;;;;;8.50;1.92;;;;;;;20.13;60.37;100580.75;8299604;28;20573;-62
2022/06/20 18:57:48;;;;;;;7.05;1.88;;;;;;;19.87;61.89;100591.50;8394990;27;20403;-62
2022/06/20 19:23:54;;;;;;;6.70;1.80;;;;;;;19.05;65.18;100596.56;8347373;27;20370;-62
2022/06/20 19:28:03;;;;;;;4.45;1.85;;;;;;;18.93;65.54;100602.72;8313059;28;20045;-62
2022/06/20 19:32:10;;;;;;;6.55;1.90;;;;;;;18.87;65.72;100609.81;8351093;28;20394;-62
2022/06/20 19:36:16;;;;;;;3.85;1.83;;;;;;;18.78;66.43;100605.50;8330464;28;20049;-62
2022/06/20 19:40:31;;;;;;;7.97;2.10;;;;;;;18.67;67.22;100611.44;8334217;28;20045;-62
2022/06/20 19:44:49;;;;;;;9.13;2.65;;;;;;;18.51;67.62;100613.56;8343072;28;20532;-63
2022/06/20 19:48:49;;;;;;;12.85;2.97;;;;;;;18.22;70.34;100619.84;8311810;28;20692;-63
2022/06/20 19:53:16;;;;;;;11.18;2.53;;;;;;;18.05;70.59;100618.28;8310530;28;20431;-63
2022/06/20 19:57:18;;;;;;;6.93;2.40;;;;;;;17.96;72.40;100613.94;8357088;28;20382;-63
2022/06/20 20:05:59;;;;;;;3.38;2.03;;;;;;;17.69;73.07;100621.88;8409636;27;20832;-62
2022/06/20 20:10:05;;;;;;;8.30;3.15;;;;;;;17.38;75.10;100635.56;8367558;28;20110;-62
2022/06/20 20:14:10;;;;;;;8.20;2.80;;;;;;;16.97;80.90;100629.53;8370754;28;20520;-62
2022/06/20 20:18:23;;;;;;;10.00;3.05;;;;;;;16.34;83.40;100644.22;8385451;28;20037;-62
2022/06/20 20:22:30;;;;;;;10.82;3.05;;;;;;;16.12;84.85;100642.22;8377233;28;20096;-62
2022/06/20 20:31:23;;;;;;;8.93;2.97;;;;;;;15.97;87.04;100646.69;8405456;27;20374;-62
2022/06/20 20:36:03;;;;;;;6.00;2.67;;;;;;;16.56;80.69;100646.25;8386834;28;20502;-62
2022/06/20 20:40:34;;;;;;;7.32;2.90;;;;;;;16.33;81.32;100653.44;8402955;27;20044;-62
2022/06/20 20:44:58;;;;;;;5.20;2.60;;;;;;;16.17;84.71;100654.34;8427909;27;20036;-62
2022/06/20 20:49:04;;;;;;;12.20;2.67;;;;;;;16.34;83.24;100649.69;8397682;27;20060;-62
2022/06/20 20:53:14;;;;;;;10.85;3.55;;;;;;;15.91;86.63;100652.81;8398975;27;20029;-62
2022/06/20 20:57:23;;;;;;;8.27;3.05;;;;;;;15.64;86.71;100654.03;8396300;27;20037;-62
2022/06/20 21:01:35;;;;;;;6.70;3.67;;;;;;;15.76;86.15;100654.56;8404652;27;20466;-62
2022/06/20 21:05:48;;;;;;;12.45;2.83;;;;;;;15.84;84.72;100646.34;8393440;27;20037;-62
2022/06/20 21:09:53;;;;;;;10.30;3.15;;;;;;;15.63;85.18;100650.47;8383422;28;20041;-62
2022/06/20 21:14:01;;;;;;;11.35;3.40;;;;;;;15.23;88.82;100654.97;8393105;27;20040;-62
2022/06/20 21:18:04;;;;;;;10.32;3.40;;;;;;;15.27;90.11;100659.06;8404656;27;20032;-62
2022/06/20 21:22:09;;;;;;;7.07;3.92;;;;;;;15.30;88.05;100648.69;8388110;27;20106;-62
2022/06/20 21:26:15;;;;;;;9.77;3.58;;;;;;;15.46;85.24;100658.75;8403870;27;20036;-62